createdAt,value
2019-06-01T00:02:11.207Z,66
2019-06-01T00:07:11.366Z,66
2019-06-01T00:12:11.182Z,66
2019-06-01T00:17:11.470Z,66
2019-06-01T00:22:11.848Z,67
2019-06-01T00:27:10.902Z,67
2019-06-01T00:32:11.329Z,67
2019-06-01T00:37:11.779Z,67
2019-06-01T00:42:10.955Z,67
2019-06-01T00:47:09.568Z,68
2019-06-01T00:52:11.319Z,68
2019-06-01T00:57:11.925Z,68
2019-06-01T01:02:10.447Z,68
2019-06-01T01:07:10.197Z,68
2019-06-01T01:12:10.486Z,69
2019-06-01T01:17:11.913Z,69
2019-06-01T01:22:10.699Z,69
2019-06-01T01:27:09.346Z,69
2019-06-01T01:32:12.149Z,69
2019-06-01T01:37:11.215Z,69
2019-06-01T01:42:10.684Z,70
2019-06-01T01:47:13.860Z,70
2019-06-01T01:52:11.571Z,70
2019-06-01T01:57:11.033Z,70
2019-06-01T02:02:10.821Z,70
2019-06-01T02:07:10.822Z,71
2019-06-01T02:12:11.652Z,71
2019-06-01T02:17:10.919Z,71
2019-06-01T02:22:10.028Z,71
2019-06-01T02:27:09.957Z,71
2019-06-01T02:32:10.885Z,71
2019-06-01T02:37:11.297Z,71
2019-06-01T02:42:09.061Z,71
2019-06-01T02:47:10.527Z,72
2019-06-01T02:52:10.046Z,72
2019-06-01T02:57:09.935Z,72
2019-06-01T03:02:13.344Z,72
2019-06-01T03:07:11.413Z,72
2019-06-01T03:12:10.796Z,72
2019-06-01T03:17:09.878Z,72
2019-06-01T03:22:12.094Z,72
2019-06-01T03:27:10.831Z,72
2019-06-01T03:32:28.994Z,72
2019-06-01T03:37:11.143Z,73
2019-06-01T03:42:11.709Z,73
2019-06-01T03:47:10.027Z,73
2019-06-01T03:52:11.585Z,73
2019-06-01T03:57:09.703Z,73
2019-06-01T04:02:11.130Z,73
2019-06-01T04:07:10.796Z,73
2019-06-01T04:12:11.791Z,73
2019-06-01T04:17:10.225Z,73
2019-06-01T04:22:10.680Z,73
2019-06-01T04:27:10.641Z,73
2019-06-01T04:32:10.771Z,73
2019-06-01T04:37:09.216Z,73
2019-06-01T04:42:11.794Z,73
2019-06-01T04:47:10.783Z,73
2019-06-01T04:52:11.843Z,73
2019-06-01T04:57:10.996Z,73
2019-06-01T05:02:13.066Z,73
2019-06-01T05:07:11.231Z,73
2019-06-01T05:12:11.415Z,73
2019-06-01T05:17:12.930Z,73
2019-06-01T05:22:10.505Z,73
2019-06-01T05:32:10.435Z,73
2019-06-01T05:37:10.747Z,73
2019-06-01T05:47:10.064Z,73
2019-06-01T05:52:10.301Z,73
2019-06-01T05:57:10.563Z,73
2019-06-01T06:02:11.131Z,73
2019-06-01T06:07:10.709Z,73
2019-06-01T06:12:09.236Z,73
2019-06-01T06:17:14.039Z,73
2019-06-01T06:22:11.839Z,73
2019-06-01T06:27:10.545Z,73
2019-06-01T06:32:10.891Z,72
2019-06-01T06:37:10.300Z,72
2019-06-01T06:42:10.488Z,72
2019-06-01T06:52:10.778Z,72
2019-06-01T06:57:10.199Z,72
2019-06-01T07:02:10.839Z,71
2019-06-01T07:07:09.840Z,71
2019-06-01T07:12:10.621Z,71
2019-06-01T07:17:09.824Z,71
2019-06-01T07:22:10.092Z,71
2019-06-01T07:47:08.467Z,70
2019-06-01T07:52:13.300Z,70
2019-06-01T08:12:10.744Z,68
2019-06-01T08:27:09.920Z,66
2019-06-01T08:32:10.524Z,65
2019-06-01T08:47:11.050Z,64
2019-06-01T08:52:10.697Z,63
2019-06-01T09:02:09.765Z,62
2019-06-01T09:22:09.167Z,61
2019-06-01T09:27:11.207Z,60
2019-06-01T09:32:11.447Z,60
2019-06-01T09:37:10.093Z,59
2019-06-01T09:42:10.798Z,59
2019-06-01T10:02:11.193Z,57
2019-06-01T10:07:10.547Z,56
2019-06-01T10:17:09.894Z,55
2019-06-01T10:22:09.536Z,55
2019-06-01T10:32:10.154Z,54
2019-06-01T10:37:08.848Z,53
2019-06-01T10:47:10.339Z,53
2019-06-01T10:52:10.988Z,52
2019-06-01T11:02:10.437Z,51
2019-06-01T11:07:10.918Z,51
2019-06-01T11:17:10.907Z,51
2019-06-01T11:22:10.638Z,50
2019-06-01T11:32:10.946Z,50
2019-06-01T11:37:15.015Z,50
2019-06-01T11:47:10.535Z,50
2019-06-01T11:52:09.700Z,49
2019-06-01T11:57:11.276Z,49
2019-06-01T12:02:10.844Z,49
2019-06-01T12:17:09.823Z,48
2019-06-01T12:22:10.314Z,48
2019-06-01T12:27:10.613Z,48
2019-06-01T12:37:10.410Z,47
2019-06-01T12:42:11.047Z,47
2019-06-01T12:47:10.544Z,47
2019-06-01T12:57:10.743Z,46
2019-06-01T13:02:10.379Z,44
2019-06-01T13:17:10.669Z,31
2019-06-01T13:22:09.902Z,30
2019-06-01T13:27:09.945Z,30
2019-06-01T13:37:10.201Z,32
2019-06-01T14:02:11.049Z,34
2019-06-01T14:12:10.380Z,34
2019-06-01T14:27:10.358Z,35
2019-06-01T14:32:10.892Z,35
2019-06-01T14:37:10.205Z,35
2019-06-01T14:47:11.134Z,35
2019-06-01T14:52:10.934Z,36
2019-06-01T15:07:10.153Z,35
2019-06-01T15:12:10.318Z,36
2019-06-01T15:17:10.455Z,36
2019-06-01T15:37:10.549Z,36
2019-06-01T15:52:10.826Z,36
2019-06-01T15:57:10.019Z,36
2019-06-01T16:02:10.443Z,35
2019-06-01T16:07:10.384Z,35
2019-06-01T16:17:09.905Z,35
2019-06-01T16:27:10.767Z,34
2019-06-01T16:32:10.634Z,33
2019-06-01T16:37:09.816Z,32
2019-06-01T16:42:10.904Z,31
2019-06-01T16:47:11.712Z,30
2019-06-01T16:57:09.405Z,29
2019-06-01T17:07:09.897Z,28
2019-06-01T17:12:09.875Z,27
2019-06-01T17:22:10.652Z,27
2019-06-01T17:32:23.162Z,26
2019-06-01T17:37:10.881Z,26
2019-06-01T17:42:09.816Z,26
2019-06-01T17:47:10.255Z,25
2019-06-01T17:52:11.860Z,26
2019-06-01T17:57:11.470Z,26
2019-06-01T18:07:10.422Z,26
2019-06-01T18:12:10.233Z,26
2019-06-01T18:17:10.314Z,26
2019-06-01T18:22:11.213Z,27
2019-06-01T18:27:10.731Z,27
2019-06-01T18:32:09.524Z,27
2019-06-01T18:37:11.385Z,28
2019-06-01T18:47:11.747Z,29
2019-06-01T18:52:09.041Z,30
2019-06-01T18:57:16.960Z,30
2019-06-01T19:02:10.492Z,30
2019-06-01T19:07:11.252Z,31
2019-06-01T19:12:11.399Z,31
2019-06-01T19:17:12.324Z,32
2019-06-01T19:22:10.444Z,33
2019-06-01T19:27:10.779Z,34
2019-06-01T19:32:10.935Z,34
2019-06-01T19:37:10.984Z,35
2019-06-01T19:42:11.219Z,36
2019-06-01T19:47:10.016Z,37
2019-06-01T19:52:10.821Z,37
2019-06-01T19:57:09.799Z,38
2019-06-01T20:02:25.893Z,38
2019-06-01T20:07:09.358Z,39
2019-06-01T20:12:13.457Z,40
2019-06-01T20:17:11.752Z,40
2019-06-01T20:22:10.771Z,41
2019-06-01T20:27:11.259Z,42
2019-06-01T20:32:11.637Z,43
2019-06-01T20:37:09.962Z,43
2019-06-01T20:42:24.363Z,44
2019-06-01T20:47:10.605Z,44
2019-06-01T20:52:11.129Z,45
2019-06-01T20:57:10.968Z,46
2019-06-01T21:02:10.260Z,46
2019-06-01T21:07:11.364Z,47
2019-06-01T21:12:11.015Z,47
2019-06-01T21:17:09.800Z,48
2019-06-01T21:22:09.955Z,48
2019-06-01T21:27:09.349Z,49
2019-06-01T21:32:11.346Z,49
2019-06-01T21:37:10.856Z,50
2019-06-01T21:42:08.457Z,50
2019-06-01T21:47:10.944Z,51
2019-06-01T21:52:11.079Z,51
2019-06-01T21:57:11.216Z,52
2019-06-01T22:02:08.944Z,52
2019-06-01T22:07:09.952Z,53
2019-06-01T22:12:11.241Z,53
2019-06-01T22:17:10.948Z,54
2019-06-01T22:22:11.287Z,54
2019-06-01T22:27:11.326Z,55
2019-06-01T22:32:11.893Z,55
2019-06-01T22:37:10.765Z,56
2019-06-01T22:42:10.094Z,56
2019-06-01T22:47:10.708Z,56
2019-06-01T22:52:10.611Z,57
2019-06-01T22:57:09.876Z,57
2019-06-01T23:02:09.578Z,57
2019-06-01T23:07:09.996Z,58
2019-06-01T23:12:08.917Z,58
2019-06-01T23:17:09.398Z,59
2019-06-01T23:22:11.978Z,59
2019-06-01T23:27:11.023Z,59
2019-06-01T23:32:10.658Z,60
2019-06-01T23:37:09.402Z,60
2019-06-01T23:42:11.000Z,60
2019-06-01T23:47:10.347Z,61
2019-06-01T23:52:12.088Z,61
2019-06-01T23:57:10.911Z,61
